| time (UTC) | temp C | wind direction | speed KPH | gust KPH | rain 1hr cm | rain 24hr cm | rain mn cm | humidity % | barometer mb |
| 20260904212638 | 32 | 231 | 0.0 | 0.0 | 0.00 | 0.00 | 0.00 | 67 | 1013.3 |
| 20260904212133 | 33 | 231 | 0.0 | 0.0 | 0.00 | 0.00 | 0.00 | 64 | 1013.2 |
| 20260904211632 | 33 | 231 | 0.0 | 1.6 | 0.00 | 0.00 | 0.00 | 63 | 1013.0 |
| 20260904211127 | 33 | 297 | 0.0 | 1.6 | 0.00 | 0.00 | 0.00 | 61 | 1013.2 |
| 20260904210621 | 34 | 240 | 0.0 | 0.0 | 0.00 | 0.00 | 0.00 | 60 | 1013.1 |
| 20260904210117 | 34 | 229 | 0.0 | 1.6 | 0.00 | 0.00 | 0.00 | 58 | 1013.0 |
| 20260904205607 | 34 | 240 | 0.0 | 0.0 | 0.00 | 0.00 | 0.00 | 59 | 1013.1 |
| 20260904205103 | 34 | 298 | 0.0 | 1.6 | 0.00 | 0.00 | 0.00 | 58 | 1013.1 |
| 20260904204559 | 35 | 326 | 3.2 | 4.8 | 0.00 | 0.00 | 0.00 | 56 | 1013.0 |
| 20260904204055 | 35 | 227 | 0.0 | 3.2 | 0.00 | 0.00 | 0.00 | 55 | 1013.1 |
| 20260904203550 | 35 | 277 | 1.6 | 3.2 | 0.00 | 0.00 | 0.00 | 55 | 1012.9 |
| 20260904203047 | 35 | 66 | 1.6 | 1.6 | 0.00 | 0.00 | 0.00 | 59 | 1013.1 |
| 20260904202542 | 34 | 314 | 0.0 | 0.0 | 0.00 | 0.00 | 0.00 | 58 | 1013.0 |
| 20260904202038 | 35 | 271 | 0.0 | 1.6 | 0.00 | 0.00 | 0.00 | 57 | 1012.9 |
| 20260904201533 | 35 | 108 | 0.0 | 1.6 | 0.00 | 0.00 | 0.00 | 58 | 1012.8 |
| 20260904201028 | 35 | 172 | 0.0 | 1.6 | 0.00 | 0.00 | 0.00 | 57 | 1012.9 |
| 20260904200527 | 35 | 229 | 0.0 | 1.6 | 0.00 | 0.00 | 0.00 | 56 | 1013.1 |
| 20260904200023 | 35 | 227 | 0.0 | 1.6 | 0.00 | 0.00 | 0.00 | 56 | 1013.1 |
| 20260904195521 | 35 | 231 | 0.0 | 0.0 | 0.00 | 0.00 | 0.00 | 54 | 1013.4 |
| 20260904195020 | 35 | 30 | 0.0 | 3.2 | 0.00 | 0.00 | 0.00 | 54 | 1013.5 |
| 20260904194515 | 36 | 225 | 0.0 | 1.6 | 0.00 | 0.00 | 0.00 | 54 | 1013.6 |
| 20260904194010 | 36 | 224 | 0.0 | 1.6 | 0.00 | 0.00 | 0.00 | 52 | 1013.5 |
| 20260904193505 | 36 | 223 | 1.6 | 3.2 | 0.00 | 0.00 | 0.00 | 52 | 1013.6 |
| 20260904193002 | 36 | 235 | 0.0 | 3.2 | 0.00 | 0.00 | 0.00 | 55 | 1013.8 |
| 20260904192501 | 36 | 246 | 1.6 | 1.6 | 0.00 | 0.00 | 0.00 | 52 | 1013.6 |
| 20260904191957 | 36 | 219 | 3.2 | 3.2 | 0.00 | 0.00 | 0.00 | 53 | 1013.8 |
| 20260904191453 | 36 | 230 | 0.0 | 3.2 | 0.00 | 0.00 | 0.00 | 53 | 1013.9 |
| 20260904190950 | 36 | 236 | 0.0 | 4.8 | 0.00 | 0.00 | 0.00 | 52 | 1014.0 |
| 20260904190445 | 36 | 23 | 1.6 | 3.2 | 0.00 | 0.00 | 0.00 | 53 | 1014.2 |
| 20260904185941 | 36 | 233 | 3.2 | 3.2 | 0.00 | 0.00 | 0.00 | 53 | 1014.1 |
| 20260904185437 | 36 | 243 | 1.6 | 1.6 | 0.00 | 0.00 | 0.00 | 54 | 1014.3 |
| 20260904184936 | 36 | 208 | 1.6 | 3.2 | 0.00 | 0.00 | 0.00 | 53 | 1014.3 |
| 20260904184431 | 36 | 237 | 0.0 | 1.6 | 0.00 | 0.00 | 0.00 | 53 | 1014.4 |
| 20260904183927 | 36 | 8 | 3.2 | 4.8 | 0.00 | 0.00 | 0.00 | 52 | 1014.8 |
| 20260904183422 | 36 | 228 | 3.2 | 4.8 | 0.00 | 0.00 | 0.00 | 55 | 1014.6 |
| 20260904182917 | 36 | 200 | 0.0 | 1.6 | 0.00 | 0.00 | 0.00 | 55 | 1014.5 |
| 20260904182412 | 36 | 230 | 0.0 | 1.6 | 0.00 | 0.00 | 0.00 | 55 | 1014.9 |
| 20260904181907 | 36 | 205 | 1.6 | 3.2 | 0.00 | 0.00 | 0.00 | 57 | 1014.7 |
| 20260904181402 | 35 | 219 | 0.0 | 1.6 | 0.00 | 0.00 | 0.00 | 57 | 1014.8 |
| 20260904180857 | 35 | 229 | 0.0 | 1.6 | 0.00 | 0.00 | 0.00 | 55 | 1014.8 |
| 20260904180353 | 36 | 228 | 1.6 | 1.6 | 0.00 | 0.00 | 0.00 | 56 | 1014.8 |
| 20260904175852 | 35 | 235 | 0.0 | 1.6 | 0.00 | 0.00 | 0.00 | 58 | 1015.0 |
| 20260904175350 | 35 | 239 | 1.6 | 3.2 | 0.00 | 0.00 | 0.00 | 59 | 1015.3 |
| 20260904174844 | 35 | 241 | 0.0 | 1.6 | 0.00 | 0.00 | 0.00 | 56 | 1015.1 |
| 20260904174341 | 37 | 310 | 0.0 | 1.6 | 0.00 | 0.00 | 0.00 | 55 | 1015.3 |
| 20260904173837 | 36 | 178 | 0.0 | 1.6 | 0.00 | 0.00 | 0.00 | 58 | 1015.3 |
| 20260904173332 | 35 | 198 | 1.6 | 3.2 | 0.00 | 0.00 | 0.00 | 57 | 1015.4 |
| 20260904172828 | 35 | 215 | 0.0 | 1.6 | 0.00 | 0.00 | 0.00 | 59 | 1015.4 |
| 20260904172327 | 35 | 235 | 1.6 | 4.8 | 0.00 | 0.00 | 0.00 | 60 | 1015.3 |
| 20260904171822 | 35 | 324 | 0.0 | 1.6 | 0.00 | 0.00 | 0.00 | 59 | 1015.3 |
| 20260904171317 | 35 | 288 | 3.2 | 4.8 | 0.00 | 0.00 | 0.00 | 59 | 1015.5 |
| 20260904170814 | 36 | 231 | 0.0 | 3.2 | 0.00 | 0.00 | 0.00 | 56 | 1015.4 |
| 20260904170309 | 35 | 227 | 0.0 | 1.6 | 0.00 | 0.00 | 0.00 | 58 | 1015.3 |
| 20260904165808 | 35 | 255 | 0.0 | 0.0 | 0.00 | 0.00 | 0.00 | 58 | 1015.4 |
| 20260904165305 | 35 | 237 | 1.6 | 3.2 | 0.00 | 0.00 | 0.00 | 60 | 1015.3 |
| 20260904164756 | 35 | 215 | 0.0 | 1.6 | 0.00 | 0.00 | 0.00 | 60 | 1015.4 |
| 20260904164252 | 34 | 153 | 1.6 | 3.2 | 0.00 | 0.00 | 0.00 | 59 | 1015.4 |
| 20260904163748 | 35 | 239 | 1.6 | 4.8 | 0.00 | 0.00 | 0.00 | 61 | 1015.6 |
| 20260904163243 | 35 | 251 | 1.6 | 6.4 | 0.00 | 0.00 | 0.00 | 59 | 1015.7 |
| 20260904162742 | 34 | 339 | 3.2 | 4.8 | 0.00 | 0.00 | 0.00 | 60 | 1015.6 |
| 20260904162237 | 35 | 191 | 1.6 | 4.8 | 0.00 | 0.00 | 0.00 | 62 | 1015.7 |
| 20260904161733 | 34 | 99 | 3.2 | 4.8 | 0.00 | 0.00 | 0.00 | 60 | 1015.7 |
| 20260904161232 | 35 | 258 | 3.2 | 4.8 | 0.00 | 0.00 | 0.00 | 62 | 1015.7 |
| 20260904160728 | 34 | 207 | 1.6 | 3.2 | 0.00 | 0.00 | 0.00 | 60 | 1015.8 |
| 20260904160224 | 34 | 245 | 0.0 | 6.4 | 0.00 | 0.00 | 0.00 | 60 | 1016.1 |
| 20260904155724 | 35 | 355 | 6.4 | 9.7 | 0.00 | 0.00 | 0.00 | 59 | 1015.9 |
| 20260904155223 | 34 | 4 | 3.2 | 3.2 | 0.00 | 0.00 | 0.00 | 60 | 1015.9 |
| 20260904154721 | 34 | 25 | 3.2 | 6.4 | 0.00 | 0.00 | 0.00 | 61 | 1015.8 |
| 20260904154216 | 34 | 4 | 4.8 | 12.9 | 0.00 | 0.00 | 0.00 | 60 | 1016.0 |
| 20260904153712 | 35 | 358 | 6.4 | 9.7 | 0.00 | 0.00 | 0.00 | 60 | 1015.9 |
| 20260904153207 | 35 | 214 | 0.0 | 3.2 | 0.00 | 0.00 | 0.00 | 60 | 1015.8 |
| 20260904152704 | 34 | 189 | 1.6 | 3.2 | 0.00 | 0.00 | 0.00 | 61 | 1015.9 |
| 20260904152159 | 35 | 143 | 3.2 | 11.3 | 0.00 | 0.00 | 0.00 | 60 | 1015.9 |
| 20260904151654 | 34 | 234 | 4.8 | 4.8 | 0.00 | 0.00 | 0.00 | 61 | 1015.8 |
| 20260904151152 | 34 | 271 | 1.6 | 4.8 | 0.00 | 0.00 | 0.00 | 62 | 1015.9 |
| 20260904150648 | 34 | 245 | 0.0 | 1.6 | 0.00 | 0.00 | 0.00 | 64 | 1015.9 |
| 20260904150144 | 33 | 237 | 1.6 | 4.8 | 0.00 | 0.00 | 0.00 | 65 | 1015.8 |
| 20260904145642 | 33 | 262 | 1.6 | 3.2 | 0.00 | 0.00 | 0.00 | 64 | 1015.8 |
| 20260904145137 | 33 | 60 | 3.2 | 6.4 | 0.00 | 0.00 | 0.00 | 66 | 1015.7 |
| 20260904144633 | 33 | 233 | 0.0 | 3.2 | 0.00 | 0.00 | 0.00 | 69 | 1015.8 |
| 20260904144128 | 33 | 154 | 1.6 | 3.2 | 0.00 | 0.00 | 0.00 | 66 | 1015.7 |
| 20260904143624 | 32 | 235 | 1.6 | 3.2 | 0.00 | 0.00 | 0.00 | 68 | 1015.7 |
| 20260904143120 | 32 | 220 | 3.2 | 3.2 | 0.00 | 0.00 | 0.00 | 67 | 1015.8 |
| 20260904142617 | 32 | 221 | 1.6 | 4.8 | 0.00 | 0.00 | 0.00 | 69 | 1015.7 |
| 20260904142112 | 32 | 217 | 1.6 | 1.6 | 0.00 | 0.00 | 0.00 | 69 | 1015.7 |
| 20260904141607 | 32 | 137 | 0.0 | 1.6 | 0.00 | 0.00 | 0.00 | 69 | 1015.7 |
| 20260904141102 | 31 | 171 | 0.0 | 1.6 | 0.00 | 0.00 | 0.00 | 73 | 1015.5 |
| 20260904140558 | 32 | 225 | 1.6 | 1.6 | 0.00 | 0.00 | 0.00 | 71 | 1015.8 |
| 20260904140052 | 31 | 224 | 0.0 | 3.2 | 0.00 | 0.00 | 0.00 | 73 | 1015.6 |
| 20260904135551 | 31 | 237 | 1.6 | 3.2 | 0.00 | 0.00 | 0.00 | 71 | 1015.6 |
| 20260904135048 | 31 | 183 | 1.6 | 4.8 | 0.00 | 0.00 | 0.00 | 72 | 1015.6 |
| 20260904134542 | 31 | 159 | 1.6 | 3.2 | 0.00 | 0.00 | 0.00 | 72 | 1015.6 |
| 20260904134036 | 31 | 223 | 1.6 | 3.2 | 0.00 | 0.00 | 0.00 | 73 | 1015.5 |
| 20260904133531 | 31 | 226 | 1.6 | 3.2 | 0.00 | 0.00 | 0.00 | 73 | 1015.3 |
| 20260904133027 | 30 | 215 | 1.6 | 1.6 | 0.00 | 0.00 | 0.00 | 74 | 1015.4 |
| 20260904132522 | 30 | 195 | 1.6 | 3.2 | 0.00 | 0.00 | 0.00 | 77 | 1015.4 |
| 20260904132021 | 30 | 224 | 3.2 | 3.2 | 0.00 | 0.00 | 0.00 | 76 | 1015.3 |
| 20260904131516 | 30 | 224 | 1.6 | 3.2 | 0.00 | 0.00 | 0.00 | 77 | 1015.5 |
| 20260904131012 | 30 | 223 | 1.6 | 1.6 | 0.00 | 0.00 | 0.00 | 78 | 1015.4 |
| 20260904130511 | 29 | 223 | 1.6 | 3.2 | 0.00 | 0.00 | 0.00 | 78 | 1015.4 |
| 20260904130006 | 29 | 218 | 3.2 | 3.2 | 0.00 | 0.00 | 0.00 | 78 | 1015.6 |
| 20260904125503 | 29 | 225 | 1.6 | 1.6 | 0.00 | 0.00 | 0.00 | 80 | 1015.6 |
| 20260904124956 | 28 | 227 | 1.6 | 1.6 | 0.00 | 0.00 | 0.00 | 80 | 1015.5 |
| 20260904124452 | 28 | 223 | 3.2 | 3.2 | 0.00 | 0.00 | 0.00 | 80 | 1015.6 |
| 20260904123948 | 28 | 222 | 0.0 | 1.6 | 0.00 | 0.00 | 0.00 | 81 | 1015.6 |
| 20260904123442 | 28 | 228 | 0.0 | 1.6 | 0.00 | 0.00 | 0.00 | 82 | 1015.8 |
| 20260904122938 | 28 | 305 | 0.0 | 1.6 | 0.00 | 0.00 | 0.00 | 82 | 1015.5 |
| 20260904122437 | 28 | 210 | 0.0 | 1.6 | 0.00 | 0.00 | 0.00 | 83 | 1015.5 |
| 20260904121932 | 27 | 217 | 0.0 | 0.0 | 0.00 | 0.00 | 0.00 | 85 | 1015.7 |
| 20260904121428 | 27 | 213 | 0.0 | 1.6 | 0.00 | 0.00 | 0.00 | 86 | 1015.9 |
| 20260904120925 | 27 | 176 | 0.0 | 0.0 | 0.00 | 0.00 | 0.00 | 86 | 1015.8 |
| 20260904120420 | 26 | 222 | 0.0 | 0.0 | 0.00 | 0.00 | 0.00 | 90 | 1015.6 |
| 20260904115915 | 26 | 209 | 0.0 | 0.0 | 0.00 | 0.00 | 0.00 | 92 | 1015.6 |
| 20260904115410 | 25 | 210 | 0.0 | 1.6 | 0.00 | 0.00 | 0.00 | 93 | 1015.5 |
| 20260904114905 | 25 | 220 | 0.0 | 0.0 | 0.00 | 0.00 | 0.00 | 95 | 1015.4 |
| 20260904114359 | 24 | 203 | 0.0 | 0.0 | 0.00 | 0.00 | 0.00 | 97 | 1015.6 |
| 20260904113855 | 23 | 215 | 0.0 | 0.0 | 0.00 | 0.00 | 0.00 | 98 | 1015.7 |
| 20260904113354 | 23 | 214 | 0.0 | 0.0 | 0.00 | 0.00 | 0.00 | 98 | 1015.5 |
| 20260904112854 | 23 | 176 | 0.0 | 0.0 | 0.00 | 0.00 | 0.00 | 98 | 1015.5 |
| 20260904112349 | 23 | 215 | 0.0 | 0.0 | 0.00 | 0.00 | 0.00 | 98 | 1015.6 |
| 20260904111846 | 23 | 235 | 0.0 | 0.0 | 0.00 | 0.00 | 0.00 | 98 | 1015.6 |
| 20260904111341 | 23 | 235 | 0.0 | 0.0 | 0.00 | 0.00 | 0.00 | 98 | 1015.5 |
| 20260904110837 | 23 | 290 | 0.0 | 0.0 | 0.00 | 0.00 | 0.00 | 98 | 1015.6 |
| 20260904110335 | 22 | 233 | 0.0 | 0.0 | 0.00 | 0.00 | 0.00 | 98 | 1015.6 |
| 20260904105830 | 22 | 233 | 0.0 | 0.0 | 0.00 | 0.00 | 0.00 | 98 | 1015.5 |
| 20260904105325 | 22 | 245 | 0.0 | 0.0 | 0.00 | 0.00 | 0.00 | 98 | 1015.6 |
| 20260904104820 | 22 | 249 | 0.0 | 0.0 | 0.00 | 0.00 | 0.00 | 98 | 1015.6 |
| 20260904104315 | 22 | 250 | 0.0 | 0.0 | 0.00 | 0.00 | 0.00 | 97 | 1015.5 |
| 20260904103813 | 23 | 250 | 0.0 | 0.0 | 0.00 | 0.00 | 0.00 | 97 | 1015.6 |
| 20260904103312 | 23 | 250 | 0.0 | 0.0 | 0.00 | 0.00 | 0.00 | 97 | 1015.6 |
| 20260904102808 | 23 | 244 | 0.0 | 0.0 | 0.00 | 0.00 | 0.00 | 97 | 1015.4 |
| 20260904102306 | 23 | 242 | 0.0 | 0.0 | 0.00 | 0.00 | 0.00 | 97 | 1015.5 |
| 20260904101759 | 23 | 242 | 0.0 | 0.0 | 0.00 | 0.00 | 0.00 | 97 | 1015.3 |
| 20260904101255 | 23 | 242 | 0.0 | 0.0 | 0.00 | 0.00 | 0.00 | 96 | 1015.4 |
| 20260904100751 | 23 | 242 | 0.0 | 0.0 | 0.00 | 0.00 | 0.00 | 96 | 1015.4 |
| 20260904100247 | 23 | 242 | 0.0 | 0.0 | 0.00 | 0.00 | 0.00 | 96 | 1015.5 |
| 20260904095746 | 23 | 242 | 0.0 | 0.0 | 0.00 | 0.00 | 0.00 | 96 | 1015.6 |
| 20260904095241 | 23 | 242 | 0.0 | 0.0 | 0.00 | 0.00 | 0.00 | 96 | 1015.6 |
| 20260904094736 | 23 | 242 | 0.0 | 0.0 | 0.00 | 0.00 | 0.00 | 95 | 1015.3 |
| 20260904094231 | 23 | 242 | 0.0 | 0.0 | 0.00 | 0.00 | 0.00 | 95 | 1015.6 |
| 20260904093728 | 23 | 242 | 0.0 | 0.0 | 0.00 | 0.00 | 0.00 | 95 | 1015.4 |
| 20260904093227 | 23 | 242 | 0.0 | 0.0 | 0.00 | 0.00 | 0.00 | 94 | 1015.6 |
| 20260904092723 | 23 | 239 | 0.0 | 0.0 | 0.00 | 0.00 | 0.00 | 94 | 1015.6 |
| 20260904092219 | 23 | 239 | 0.0 | 0.0 | 0.00 | 0.00 | 0.00 | 93 | 1015.8 |
| 20260904091715 | 23 | 238 | 0.0 | 0.0 | 0.00 | 0.00 | 0.00 | 93 | 1015.7 |
| 20260904091209 | 24 | 247 | 0.0 | 0.0 | 0.00 | 0.00 | 0.00 | 93 | 1015.9 |
| 20260904090705 | 24 | 242 | 0.0 | 0.0 | 0.00 | 0.00 | 0.00 | 92 | 1015.7 |
| 20260904090201 | 24 | 242 | 0.0 | 0.0 | 0.00 | 0.00 | 0.00 | 91 | 1015.8 |
| 20260904085655 | 24 | 248 | 0.0 | 0.0 | 0.00 | 0.00 | 0.00 | 91 | 1015.8 |
| 20260904085150 | 24 | 248 | 0.0 | 0.0 | 0.00 | 0.00 | 0.00 | 91 | 1015.8 |
| 20260904084645 | 24 | 248 | 0.0 | 0.0 | 0.00 | 0.00 | 0.00 | 91 | 1015.6 |
| 20260904084142 | 25 | 217 | 0.0 | 0.0 | 0.00 | 0.00 | 0.00 | 90 | 1015.6 |
| 20260904083638 | 25 | 217 | 0.0 | 0.0 | 0.00 | 0.00 | 0.00 | 90 | 1015.7 |
| 20260904083133 | 25 | 219 | 0.0 | 0.0 | 0.00 | 0.00 | 0.00 | 89 | 1015.5 |
| 20260904082628 | 25 | 219 | 0.0 | 0.0 | 0.00 | 0.00 | 0.00 | 89 | 1015.6 |
| 20260904082124 | 25 | 260 | 0.0 | 0.0 | 0.00 | 0.00 | 0.00 | 89 | 1015.6 |
| 20260904081619 | 25 | 217 | 0.0 | 0.0 | 0.00 | 0.00 | 0.00 | 88 | 1015.5 |
| 20260904081114 | 25 | 215 | 0.0 | 0.0 | 0.00 | 0.00 | 0.00 | 88 | 1015.5 |
| 20260904080610 | 25 | 202 | 0.0 | 0.0 | 0.00 | 0.00 | 0.00 | 88 | 1015.3 |
| 20260904080106 | 25 | 198 | 0.0 | 0.0 | 0.00 | 0.00 | 0.00 | 87 | 1015.3 |
| 20260904075601 | 25 | 339 | 0.0 | 1.6 | 0.00 | 0.00 | 0.00 | 87 | 1015.5 |
| 20260904075056 | 25 | 198 | 0.0 | 0.0 | 0.00 | 0.00 | 0.00 | 87 | 1015.3 |
| 20260904074555 | 25 | 211 | 0.0 | 0.0 | 0.00 | 0.00 | 0.00 | 86 | 1015.5 |
| 20260904074050 | 25 | 238 | 0.0 | 0.0 | 0.00 | 0.00 | 0.00 | 85 | 1015.3 |
| 20260904073545 | 26 | 254 | 0.0 | 0.0 | 0.00 | 0.00 | 0.00 | 85 | 1015.3 |
| 20260904073041 | 26 | 191 | 0.0 | 0.0 | 0.00 | 0.00 | 0.00 | 84 | 1015.3 |
| 20260904072537 | 26 | 212 | 0.0 | 3.2 | 0.00 | 0.00 | 0.00 | 84 | 1014.8 |
| 20260904072032 | 26 | 259 | 0.0 | 0.0 | 0.00 | 0.00 | 0.00 | 83 | 1015.0 |
| 20260904071527 | 26 | 215 | 0.0 | 0.0 | 0.00 | 0.00 | 0.00 | 83 | 1015.1 |
| 20260904071022 | 26 | 213 | 0.0 | 0.0 | 0.00 | 0.00 | 0.00 | 82 | 1015.1 |
| 20260904070521 | 26 | 213 | 0.0 | 1.6 | 0.00 | 0.00 | 0.00 | 82 | 1015.1 |
| 20260904070015 | 26 | 167 | 1.6 | 1.6 | 0.00 | 0.00 | 0.00 | 81 | 1015.1 |
| 20260904065510 | 26 | 239 | 0.0 | 0.0 | 0.00 | 0.00 | 0.00 | 81 | 1015.3 |
| 20260904065007 | 26 | 227 | 0.0 | 4.8 | 0.00 | 0.00 | 0.00 | 80 | 1015.3 |
| 20260904064503 | 26 | 339 | 3.2 | 4.8 | 0.00 | 0.00 | 0.00 | 81 | 1015.3 |
| 20260904063957 | 27 | 215 | 0.0 | 3.2 | 0.00 | 0.00 | 0.00 | 82 | 1015.3 |
| 20260904063454 | 27 | 243 | 0.0 | 4.8 | 0.00 | 0.00 | 0.00 | 81 | 1015.2 |
| 20260904062954 | 27 | 343 | 0.0 | 1.6 | 0.00 | 0.00 | 0.00 | 81 | 1015.4 |
| 20260904062450 | 27 | 60 | 3.2 | 3.2 | 0.00 | 0.00 | 0.00 | 82 | 1015.7 |
| 20260904061945 | 27 | 27 | 3.2 | 6.4 | 0.00 | 0.00 | 0.00 | 82 | 1015.9 |
| 20260904061442 | 28 | 356 | 4.8 | 4.8 | 0.00 | 0.00 | 0.00 | 82 | 1016.1 |
| 20260904060937 | 28 | 294 | 0.0 | 1.6 | 0.00 | 0.00 | 0.00 | 81 | 1016.4 |
| 20260904060433 | 28 | 0 | 4.8 | 11.3 | 0.00 | 0.00 | 0.00 | 80 | 1016.5 |
| 20260904055929 | 28 | 321 | 1.6 | 1.6 | 0.00 | 0.00 | 0.00 | 79 | 1016.2 |
| 20260904055424 | 28 | 6 | 9.7 | 14.5 | 0.00 | 0.00 | 0.00 | 80 | 1016.4 |
| 20260904054920 | 27 | 250 | 0.0 | 0.0 | 0.00 | 0.00 | 0.00 | 81 | 1015.6 |
| 20260904054415 | 28 | 256 | 0.0 | 0.0 | 0.00 | 0.00 | 0.00 | 82 | 1015.3 |
| 20260904053911 | 28 | 240 | 0.0 | 0.0 | 0.00 | 0.00 | 0.00 | 81 | 1015.1 |
| 20260904053410 | 28 | 259 | 0.0 | 3.2 | 0.00 | 0.00 | 0.00 | 81 | 1015.1 |
| 20260904052906 | 28 | 250 | 0.0 | 1.6 | 0.00 | 0.00 | 0.00 | 81 | 1015.2 |
| 20260904052402 | 28 | 233 | 0.0 | 0.0 | 0.00 | 0.00 | 0.00 | 82 | 1014.8 |
| 20260904051859 | 28 | 240 | 0.0 | 3.2 | 0.00 | 0.00 | 0.00 | 81 | 1015.0 |
| 20260904051354 | 28 | 181 | 1.6 | 3.2 | 0.00 | 0.00 | 0.00 | 82 | 1015.1 |
| 20260904050848 | 28 | 219 | 0.0 | 1.6 | 0.00 | 0.00 | 0.00 | 83 | 1015.1 |
| 20260904050345 | 28 | 223 | 1.6 | 3.2 | 0.00 | 0.00 | 0.00 | 84 | 1015.4 |
| 20260904045845 | 27 | 219 | 1.6 | 1.6 | 0.00 | 0.00 | 0.00 | 86 | 1015.4 |
| 20260904045340 | 27 | 239 | 0.0 | 3.2 | 0.00 | 0.00 | 0.00 | 86 | 1015.4 |
| 20260904044840 | 27 | 198 | 3.2 | 4.8 | 0.00 | 0.00 | 0.00 | 85 | 1015.4 |
| 20260904044337 | 27 | 220 | 0.0 | 1.6 | 0.00 | 0.00 | 0.00 | 86 | 1015.5 |
| 20260904043833 | 27 | 162 | 0.0 | 1.6 | 0.00 | 0.00 | 0.00 | 86 | 1015.5 |
| 20260904043329 | 27 | 231 | 0.0 | 0.0 | 0.00 | 0.00 | 0.00 | 88 | 1015.4 |
| 20260904042830 | 27 | 240 | 0.0 | 0.0 | 0.00 | 0.00 | 0.00 | 88 | 1015.6 |
| 20260904042326 | 27 | 159 | 1.6 | 1.6 | 0.00 | 0.00 | 0.00 | 89 | 1015.8 |
| 20260904041826 | 26 | 217 | 0.0 | 0.0 | 0.00 | 0.00 | 0.00 | 89 | 1015.7 |
| 20260904041322 | 26 | 219 | 0.0 | 0.0 | 0.00 | 0.00 | 0.00 | 89 | 1015.7 |
| 20260904040817 | 26 | 232 | 0.0 | 0.0 | 0.00 | 0.00 | 0.00 | 89 | 1015.7 |
| 20260904040313 | 26 | 235 | 0.0 | 0.0 | 0.00 | 0.00 | 0.00 | 89 | 1015.6 |
| 20260904035809 | 26 | 235 | 0.0 | 0.0 | 0.00 | 0.03 | 0.03 | 88 | 1015.8 |
| 20260904035306 | 26 | 231 | 0.0 | 0.0 | 0.00 | 0.03 | 0.03 | 88 | 1015.8 |
| 20260904034803 | 27 | 231 | 0.0 | 0.0 | 0.00 | 0.03 | 0.03 | 87 | 1015.6 |
| 20260904034259 | 27 | 210 | 0.0 | 1.6 | 0.00 | 0.03 | 0.03 | 87 | 1015.9 |
| 20260904033755 | 27 | 246 | 0.0 | 0.0 | 0.00 | 0.03 | 0.03 | 87 | 1015.9 |
| 20260904033251 | 27 | 246 | 0.0 | 0.0 | 0.00 | 0.03 | 0.03 | 86 | 1016.0 |
| 20260904032748 | 27 | 245 | 0.0 | 0.0 | 0.00 | 0.03 | 0.03 | 86 | 1016.2 |
| 20260904032246 | 27 | 246 | 0.0 | 0.0 | 0.00 | 0.03 | 0.03 | 86 | 1016.0 |
| 20260904031741 | 27 | 235 | 0.0 | 0.0 | 0.00 | 0.03 | 0.03 | 87 | 1015.8 |
| 20260904031236 | 27 | 233 | 0.0 | 0.0 | 0.00 | 0.03 | 0.03 | 87 | 1016.0 |
| 20260904030726 | 27 | 248 | 0.0 | 0.0 | 0.00 | 0.03 | 0.03 | 87 | 1015.9 |
| 20260904030221 | 27 | 250 | 0.0 | 0.0 | 0.00 | 0.03 | 0.03 | 87 | 1015.9 |
| 20260904025718 | 27 | 242 | 0.0 | 0.0 | 0.00 | 0.03 | 0.03 | 87 | 1015.9 |
| 20260904025212 | 27 | 235 | 0.0 | 0.0 | 0.00 | 0.03 | 0.03 | 87 | 1015.7 |
| 20260904024708 | 27 | 233 | 0.0 | 0.0 | 0.00 | 0.03 | 0.03 | 87 | 1015.8 |
| 20260904024203 | 27 | 225 | 0.0 | 0.0 | 0.00 | 0.03 | 0.03 | 87 | 1016.0 |
| 20260904023659 | 27 | 219 | 0.0 | 0.0 | 0.00 | 0.03 | 0.03 | 87 | 1015.9 |
| 20260904023155 | 27 | 224 | 0.0 | 0.0 | 0.00 | 0.03 | 0.03 | 86 | 1015.6 |
| 20260904022649 | 27 | 224 | 0.0 | 0.0 | 0.00 | 0.03 | 0.03 | 86 | 1015.8 |
| 20260904022146 | 28 | 219 | 0.0 | 0.0 | 0.00 | 0.03 | 0.03 | 86 | 1015.7 |
| 20260904021641 | 28 | 219 | 0.0 | 0.0 | 0.00 | 0.03 | 0.03 | 85 | 1015.6 |
| 20260904021136 | 28 | 159 | 0.0 | 1.6 | 0.00 | 0.03 | 0.03 | 86 | 1015.5 |
| 20260904020633 | 28 | 235 | 0.0 | 1.6 | 0.00 | 0.03 | 0.03 | 86 | 1015.8 |
| 20260904020126 | 28 | 198 | 3.2 | 3.2 | 0.00 | 0.03 | 0.03 | 87 | 1015.9 |
| 20260904015621 | 27 | 189 | 1.6 | 1.6 | 0.00 | 0.03 | 0.03 | 89 | 1016.0 |
| 20260904015119 | 27 | 227 | 0.0 | 0.0 | 0.00 | 0.03 | 0.03 | 91 | 1016.1 |
| 20260904014614 | 27 | 221 | 0.0 | 0.0 | 0.00 | 0.03 | 0.03 | 91 | 1016.0 |
| 20260904014109 | 27 | 227 | 0.0 | 0.0 | 0.00 | 0.03 | 0.03 | 92 | 1016.0 |
| 20260904013606 | 27 | 227 | 0.0 | 0.0 | 0.00 | 0.03 | 0.03 | 92 | 1016.2 |
| 20260904013057 | 27 | 233 | 0.0 | 0.0 | 0.00 | 0.03 | 0.03 | 92 | 1016.0 |
| 20260904012556 | 27 | 254 | 0.0 | 0.0 | 0.00 | 0.03 | 0.03 | 92 | 1016.3 |
| 20260904012056 | 27 | 246 | 0.0 | 0.0 | 0.00 | 0.03 | 0.03 | 92 | 1016.2 |
| 20260904011549 | 27 | 246 | 0.0 | 0.0 | 0.00 | 0.03 | 0.03 | 92 | 1016.4 |
| 20260904011045 | 27 | 246 | 0.0 | 0.0 | 0.00 | 0.03 | 0.03 | 92 | 1016.2 |
| 20260904010541 | 27 | 246 | 0.0 | 0.0 | 0.00 | 0.03 | 0.03 | 91 | 1016.6 |
| 20260904010038 | 27 | 246 | 0.0 | 0.0 | 0.00 | 0.03 | 0.03 | 91 | 1016.5 |
| 20260904005537 | 27 | 246 | 0.0 | 0.0 | 0.00 | 0.03 | 0.03 | 91 | 1016.6 |
| 20260904005027 | 27 | 246 | 0.0 | 0.0 | 0.00 | 0.03 | 0.03 | 91 | 1016.4 |
| 20260904004523 | 27 | 246 | 0.0 | 0.0 | 0.00 | 0.03 | 0.03 | 91 | 1016.5 |
| 20260904004023 | 28 | 246 | 0.0 | 0.0 | 0.00 | 0.03 | 0.03 | 90 | 1016.2 |
| 20260904003519 | 28 | 246 | 0.0 | 0.0 | 0.00 | 0.03 | 0.03 | 90 | 1016.4 |
| 20260904003014 | 28 | 250 | 0.0 | 0.0 | 0.00 | 0.03 | 0.03 | 89 | 1016.4 |
| 20260904002510 | 28 | 250 | 0.0 | 0.0 | 0.00 | 0.03 | 0.03 | 89 | 1016.4 |
| 20260904002009 | 28 | 250 | 0.0 | 0.0 | 0.00 | 0.03 | 0.03 | 88 | 1016.2 |
| 20260904001505 | 28 | 250 | 0.0 | 0.0 | 0.00 | 0.03 | 0.03 | 88 | 1016.1 |
| 20260904000959 | 28 | 250 | 0.0 | 0.0 | 0.00 | 0.03 | 0.03 | 87 | 1016.1 |
| 20260904000458 | 28 | 250 | 0.0 | 0.0 | 0.00 | 0.03 | 0.03 | 87 | 1015.8 |
| 20260903235954 | 28 | 250 | 0.0 | 0.0 | 0.00 | 0.03 | 0.03 | 86 | 1016.0 |
| 20260903235449 | 28 | 250 | 0.0 | 0.0 | 0.00 | 0.03 | 0.03 | 85 | 1015.6 |
| 20260903234944 | 29 | 250 | 0.0 | 0.0 | 0.00 | 0.03 | 0.03 | 85 | 1015.5 |
| 20260903234440 | 29 | 250 | 0.0 | 0.0 | 0.00 | 0.03 | 0.03 | 84 | 1015.6 |
| 20260903233936 | 29 | 250 | 0.0 | 0.0 | 0.00 | 0.03 | 0.03 | 83 | 1015.6 |
| 20260903233431 | 30 | 239 | 0.0 | 0.0 | 0.00 | 0.03 | 0.03 | 83 | 1015.4 |
| 20260903232926 | 30 | 235 | 0.0 | 0.0 | 0.00 | 0.03 | 0.03 | 82 | 1015.4 |
| 20260903232420 | 30 | 244 | 0.0 | 0.0 | 0.00 | 0.03 | 0.03 | 81 | 1015.4 |
| 20260903231915 | 30 | 243 | 0.0 | 0.0 | 0.00 | 0.03 | 0.03 | 81 | 1015.7 |
| 20260903231410 | 30 | 243 | 0.0 | 0.0 | 0.00 | 0.03 | 0.03 | 80 | 1015.4 |
| 20260903230905 | 30 | 243 | 0.0 | 0.0 | 0.00 | 0.03 | 0.03 | 79 | 1015.6 |
| 20260903230400 | 31 | 243 | 0.0 | 0.0 | 0.00 | 0.03 | 0.03 | 79 | 1015.5 |
| 20260903225856 | 31 | 245 | 0.0 | 0.0 | 0.00 | 0.03 | 0.03 | 78 | 1015.3 |
| 20260903225352 | 31 | 240 | 0.0 | 0.0 | 0.00 | 0.03 | 0.03 | 79 | 1015.3 |
| 20260903224848 | 31 | 239 | 0.0 | 0.0 | 0.00 | 0.03 | 0.03 | 78 | 1015.3 |
| 20260903224343 | 31 | 238 | 0.0 | 0.0 | 0.00 | 0.03 | 0.03 | 77 | 1015.2 |
| 20260903223839 | 31 | 238 | 0.0 | 0.0 | 0.00 | 0.03 | 0.03 | 76 | 1015.3 |
| 20260903223337 | 31 | 242 | 0.0 | 0.0 | 0.00 | 0.03 | 0.03 | 75 | 1015.3 |
| 20260903222832 | 32 | 230 | 0.0 | 0.0 | 0.00 | 0.03 | 0.03 | 73 | 1015.2 |
| 20260903222326 | 32 | 234 | 0.0 | 0.0 | 0.00 | 0.03 | 0.03 | 72 | 1015.2 |
| 20260903221821 | 32 | 234 | 0.0 | 0.0 | 0.00 | 0.03 | 0.03 | 71 | 1015.3 |
| 20260903221320 | 32 | 235 | 0.0 | 0.0 | 0.00 | 0.03 | 0.03 | 71 | 1015.3 |
| 20260903220818 | 33 | 237 | 0.0 | 0.0 | 0.00 | 0.03 | 0.03 | 68 | 1015.3 |
| 20260903220312 | 33 | 226 | 0.0 | 0.0 | 0.00 | 0.03 | 0.03 | 67 | 1015.4 |
| 20260903215805 | 33 | 212 | 0.0 | 0.0 | 0.00 | 0.03 | 0.03 | 66 | 1015.5 |
| 20260903215305 | 33 | 222 | 0.0 | 0.0 | 0.00 | 0.03 | 0.03 | 65 | 1015.6 |
| 20260903214759 | 34 | 220 | 0.0 | 1.6 | 0.00 | 0.03 | 0.03 | 64 | 1015.5 |
| 20260903214256 | 34 | 228 | 0.0 | 1.6 | 0.00 | 0.03 | 0.03 | 61 | 1015.5 |
| 20260903213750 | 35 | 191 | 1.6 | 3.2 | 0.00 | 0.03 | 0.03 | 62 | 1015.4 |
| 20260903213246 | 35 | 222 | 0.0 | 1.6 | 0.00 | 0.03 | 0.03 | 60 | 1015.2 |
| 20260903212742 | 35 | 209 | 0.0 | 1.6 | 0.00 | 0.03 | 0.03 | 60 | 1015.5 |